Time;durP1;ratioP1;P1;durP2;ratioP2;P2;SDS_P1;SDS_P2;PMS_P1;PMS_P2;Temp;Humidity;BMP_temperature;BMP_pressure;BME280_temperature;BME280_humidity;BME280_pressure;Samples;Min_cycle;Max_cycle;Signal;HPM_P1;HPM_P2
2023/08/23 00:00:40;;;;;;;5.93;4.05;;;;;;;16.92;100.00;101899.47;5281712;28;20040;-69
2023/08/23 00:03:11;;;;;;;6.88;4.03;;;;;;;16.77;100.00;101906.16;5287617;28;20385;-69
2023/08/23 00:05:43;;;;;;;5.55;4.25;;;;;;;16.87;100.00;101890.91;5291680;28;20050;-69
2023/08/23 00:08:14;;;;;;;7.70;3.83;;;;;;;16.80;100.00;101895.13;5281911;28;20024;-69
2023/08/23 00:10:53;;;;;;;6.65;4.70;;;;;;;16.67;100.00;101898.00;5281454;28;20505;-69
2023/08/23 00:13:24;;;;;;;5.80;4.32;;;;;;;16.67;100.00;101890.75;5281490;28;20030;-69
2023/08/23 00:15:55;;;;;;;6.18;4.63;;;;;;;16.66;100.00;101882.81;5288745;28;20035;-69
2023/08/23 00:18:27;;;;;;;8.10;4.82;;;;;;;16.64;100.00;101887.47;5281141;28;20105;-69
2023/08/23 00:20:58;;;;;;;8.15;4.32;;;;;;;16.63;100.00;101881.25;5287973;28;20051;-69
2023/08/23 00:23:30;;;;;;;6.88;4.20;;;;;;;16.61;100.00;101885.06;5289182;28;20089;-69
2023/08/23 00:26:01;;;;;;;7.28;4.25;;;;;;;16.46;100.00;101889.91;5282409;28;20024;-69
2023/08/23 00:28:32;;;;;;;6.57;4.13;;;;;;;16.51;100.00;101893.06;5288087;28;20031;-69
2023/08/23 00:31:04;;;;;;;5.80;4.43;;;;;;;16.43;100.00;101890.16;5286547;28;20476;-69
2023/08/23 00:33:36;;;;;;;7.05;4.80;;;;;;;16.38;100.00;101887.88;5281361;28;20028;-68
2023/08/23 00:36:07;;;;;;;7.05;4.30;;;;;;;16.39;100.00;101886.88;5297507;28;20039;-69
2023/08/23 00:38:39;;;;;;;7.53;4.45;;;;;;;16.31;100.00;101877.75;5280191;28;20032;-69
2023/08/23 00:41:10;;;;;;;8.45;4.60;;;;;;;16.35;100.00;101873.81;5286189;28;20073;-69
2023/08/23 00:43:41;;;;;;;6.93;4.05;;;;;;;16.35;100.00;101869.25;5277317;28;20028;-69
2023/08/23 00:46:14;;;;;;;7.22;4.78;;;;;;;16.26;100.00;101870.91;5284477;28;20490;-69
2023/08/23 00:48:46;;;;;;;6.93;4.53;;;;;;;16.37;100.00;101867.28;5289015;28;20086;-69
2023/08/23 00:51:18;;;;;;;5.95;4.55;;;;;;;16.39;100.00;101876.09;5283631;28;20024;-69
2023/08/23 00:53:50;;;;;;;7.07;4.40;;;;;;;16.41;100.00;101866.03;5279366;28;20482;-69
2023/08/23 00:56:21;;;;;;;6.60;4.45;;;;;;;16.24;100.00;101872.00;5283976;28;20032;-69
2023/08/23 00:58:52;;;;;;;8.07;4.65;;;;;;;16.31;100.00;101859.72;5281318;28;20041;-69
2023/08/23 01:01:24;;;;;;;7.25;4.40;;;;;;;16.24;100.00;101861.22;5284321;28;20040;-69
2023/08/23 01:03:57;;;;;;;5.15;3.97;;;;;;;16.31;100.00;101866.97;5280361;28;20152;-68
2023/08/23 01:06:45;;;;;;;7.32;4.10;;;;;;;16.13;100.00;101864.84;5282806;28;20034;-69
2023/08/23 01:10:08;;;;;;;6.18;4.28;;;;;;;16.23;100.00;101860.38;5284188;28;20046;-69
2023/08/23 01:12:50;;;;;;;6.97;4.32;;;;;;;16.02;100.00;101868.44;5278950;28;20044;-69
2023/08/23 01:15:23;;;;;;;6.03;3.63;;;;;;;16.12;100.00;101868.50;5283354;28;20448;-69
2023/08/23 01:17:56;;;;;;;6.50;4.03;;;;;;;16.03;100.00;101870.16;5286099;28;20036;-69
2023/08/23 01:20:27;;;;;;;7.22;3.85;;;;;;;15.99;100.00;101867.81;5285613;28;20107;-69
2023/08/23 01:23:09;;;;;;;5.63;3.97;;;;;;;16.03;100.00;101874.66;5278676;28;20587;-69
2023/08/23 01:25:47;;;;;;;7.22;4.00;;;;;;;15.99;100.00;101866.00;5285346;28;20027;-69
2023/08/23 01:28:19;;;;;;;7.47;3.58;;;;;;;16.04;100.00;101879.06;5278747;28;20029;-69
2023/08/23 01:30:51;;;;;;;6.10;3.85;;;;;;;15.88;100.00;101880.34;5284861;28;20036;-69
2023/08/23 01:33:44;;;;;;;5.28;3.03;;;;;;;16.00;100.00;101878.47;5283450;28;20069;-69
2023/08/23 01:36:22;;;;;;;4.88;3.50;;;;;;;15.95;100.00;101877.13;5284118;28;20046;-69
2023/08/23 01:38:56;;;;;;;5.70;3.10;;;;;;;15.95;100.00;101869.06;5286903;28;20159;-69
2023/08/23 01:41:28;;;;;;;7.82;3.75;;;;;;;15.94;100.00;101870.91;5281181;28;20037;-69
2023/08/23 01:44:00;;;;;;;5.35;3.63;;;;;;;15.83;100.00;101876.31;5285583;28;20048;-69
2023/08/23 01:46:33;;;;;;;6.75;3.60;;;;;;;15.97;100.00;101854.47;5285693;28;20035;-69
2023/08/23 01:49:05;;;;;;;4.95;3.65;;;;;;;15.91;100.00;101859.53;5279769;28;20077;-69
2023/08/23 01:51:36;;;;;;;6.80;3.42;;;;;;;15.78;100.00;101857.00;5286400;28;20024;-69
2023/08/23 01:54:08;;;;;;;6.00;3.08;;;;;;;15.92;100.00;101856.72;5282277;28;20117;-69
2023/08/23 01:56:39;;;;;;;4.57;2.90;;;;;;;16.00;100.00;101856.94;5283330;28;20081;-69
2023/08/23 01:59:10;;;;;;;6.53;3.40;;;;;;;15.90;100.00;101861.38;5281803;28;20570;-69
2023/08/23 02:01:42;;;;;;;5.72;3.42;;;;;;;15.86;100.00;101860.78;5281340;28;20497;-69
2023/08/23 02:04:16;;;;;;;5.38;3.40;;;;;;;15.69;100.00;101866.66;5283458;28;20035;-69
2023/08/23 02:06:47;;;;;;;;;;;;;;;15.83;100.00;101858.31;5279510;28;20028;-69
2023/08/23 02:09:19;;;;;;;7.47;2.97;;;;;;;15.85;100.00;101859.06;5281676;28;19916;-69
2023/08/23 02:11:50;;;;;;;5.88;3.65;;;;;;;15.66;100.00;101857.00;5281271;28;20032;-69
2023/08/23 02:14:21;;;;;;;4.43;3.22;;;;;;;15.63;100.00;101867.19;5283719;28;20024;-69
2023/08/23 02:16:53;;;;;;;7.63;3.60;;;;;;;15.59;100.00;101863.00;5281297;28;20086;-69
2023/08/23 02:19:24;;;;;;;5.22;3.50;;;;;;;15.71;100.00;101859.31;5280673;28;20052;-69
2023/08/23 02:21:56;;;;;;;8.05;4.32;;;;;;;15.59;100.00;101861.19;5278431;28;20338;-69
2023/08/23 02:24:27;;;;;;;7.20;3.83;;;;;;;15.53;100.00;101860.81;5285671;28;20068;-68
2023/08/23 02:26:59;;;;;;;6.82;3.85;;;;;;;15.52;100.00;101861.81;5284774;28;20089;-69
2023/08/23 02:29:30;;;;;;;6.00;4.00;;;;;;;15.58;100.00;101856.78;5280640;28;20039;-69
2023/08/23 02:32:04;;;;;;;7.50;3.60;;;;;;;15.71;100.00;101845.88;5280817;28;20028;-69
2023/08/23 02:34:37;;;;;;;4.85;3.58;;;;;;;15.68;100.00;101854.19;5281424;28;20028;-68
2023/08/23 02:37:08;;;;;;;6.30;3.63;;;;;;;15.60;100.00;101859.34;5283509;28;20046;-68
2023/08/23 02:39:39;;;;;;;6.63;4.00;;;;;;;15.57;100.00;101862.28;5283386;28;21406;-69
2023/08/23 02:42:11;;;;;;;6.80;4.00;;;;;;;15.48;100.00;101856.66;5286576;28;20480;-68
2023/08/23 02:44:42;;;;;;;7.93;4.30;;;;;;;15.52;100.00;101854.59;5285625;28;20147;-69
2023/08/23 02:47:13;;;;;;;5.78;3.33;;;;;;;15.61;100.00;101844.91;5285935;28;20386;-68
2023/08/23 02:49:45;;;;;;;9.85;3.90;;;;;;;15.43;100.00;101864.25;5288037;28;20038;-69
2023/08/23 02:52:16;;;;;;;5.80;3.75;;;;;;;15.54;100.00;101865.22;5284490;28;20027;-69
2023/08/23 02:54:48;;;;;;;8.23;4.50;;;;;;;15.34;100.00;101856.94;5290582;28;20029;-69
2023/08/23 02:57:19;;;;;;;6.60;3.53;;;;;;;15.22;100.00;101848.00;5283393;28;20333;-69
2023/08/23 02:59:51;;;;;;;5.28;3.72;;;;;;;15.25;100.00;101842.41;5283594;28;20024;-69
2023/08/23 03:02:22;;;;;;;5.53;3.63;;;;;;;15.38;100.00;101841.38;5295650;28;20122;-68
2023/08/23 03:04:53;;;;;;;6.28;3.60;;;;;;;15.35;100.00;101844.34;5296557;28;20035;-69
2023/08/23 03:07:25;;;;;;;6.85;3.50;;;;;;;15.28;100.00;101836.78;5294252;28;20292;-69
2023/08/23 03:09:56;;;;;;;8.27;3.67;;;;;;;15.34;100.00;101840.81;5288394;28;20043;-69
2023/08/23 03:12:28;;;;;;;7.40;3.97;;;;;;;15.31;100.00;101841.03;5296087;28;20083;-69
2023/08/23 03:14:59;;;;;;;7.95;3.42;;;;;;;15.31;100.00;101843.72;5279934;28;20744;-69
2023/08/23 03:17:31;;;;;;;9.35;3.65;;;;;;;15.25;100.00;101839.69;5284819;28;20355;-69
2023/08/23 03:20:03;;;;;;;6.38;3.97;;;;;;;15.11;100.00;101839.97;5283747;28;20544;-68
2023/08/23 03:22:35;;;;;;;6.72;4.03;;;;;;;15.09;100.00;101826.66;5276828;28;20534;-68
2023/08/23 03:25:07;;;;;;;9.13;4.25;;;;;;;15.00;100.00;101834.59;5283517;28;20062;-69
2023/08/23 03:27:38;;;;;;;8.05;4.05;;;;;;;14.93;100.00;101834.22;5290929;28;20386;-69
2023/08/23 03:30:10;;;;;;;5.55;4.07;;;;;;;15.11;100.00;101823.84;5285710;28;20444;-69
2023/08/23 03:32:41;;;;;;;7.93;4.03;;;;;;;15.03;100.00;101829.84;5295437;28;20043;-68
2023/08/23 03:35:13;;;;;;;5.20;3.38;;;;;;;15.14;100.00;101841.56;5295234;28;20023;-68
2023/08/23 03:37:44;;;;;;;7.13;3.75;;;;;;;15.19;100.00;101836.66;5283745;28;20418;-69
2023/08/23 03:40:16;;;;;;;7.43;4.05;;;;;;;15.15;100.00;101841.44;5282157;28;20031;-69
2023/08/23 03:42:47;;;;;;;9.38;4.63;;;;;;;14.98;100.00;101833.88;5279925;28;20028;-69
2023/08/23 03:45:19;;;;;;;6.18;4.28;;;;;;;15.12;100.00;101835.44;5277933;28;20376;-69
2023/08/23 03:47:50;;;;;;;5.65;3.90;;;;;;;15.03;100.00;101823.56;5277988;28;20030;-69
2023/08/23 03:50:21;;;;;;;7.53;4.13;;;;;;;15.00;100.00;101837.28;5276960;28;20123;-69
2023/08/23 03:52:53;;;;;;;9.43;5.25;;;;;;;15.02;100.00;101827.25;5286264;28;20016;-69
2023/08/23 03:55:24;;;;;;;7.95;4.05;;;;;;;15.10;100.00;101827.50;5286289;28;20036;-69
2023/08/23 03:57:55;;;;;;;7.35;4.13;;;;;;;15.12;100.00;101835.44;5285716;28;20032;-69
2023/08/23 04:00:27;;;;;;;5.22;3.70;;;;;;;15.12;100.00;101838.97;5284886;28;20621;-69
2023/08/23 04:03:00;;;;;;;7.00;3.67;;;;;;;15.08;100.00;101833.00;5284858;28;20314;-69
2023/08/23 04:05:31;;;;;;;7.40;3.90;;;;;;;15.10;100.00;101833.72;5287307;28;20111;-69
2023/08/23 04:08:06;;;;;;;7.13;3.45;;;;;;;15.17;100.00;101833.22;5280768;28;20474;-69
2023/08/23 04:10:37;;;;;;;7.53;4.22;;;;;;;15.18;100.00;101829.56;5286558;28;20064;-68
2023/08/23 04:13:08;;;;;;;8.38;3.90;;;;;;;14.98;100.00;101840.09;5288242;28;20085;-69
2023/08/23 04:15:46;;;;;;;7.93;4.28;;;;;;;15.12;100.00;101846.19;5281641;28;20031;-69
2023/08/23 04:18:18;;;;;;;9.73;4.68;;;;;;;14.94;100.00;101838.63;5285633;28;20461;-68
2023/08/23 04:20:59;;;;;;;7.93;4.22;;;;;;;15.02;100.00;101840.69;5278401;28;20483;-68
2023/08/23 04:23:31;;;;;;;8.88;3.75;;;;;;;15.07;100.00;101839.34;5284411;28;20680;-69
2023/08/23 04:26:02;;;;;;;6.75;4.25;;;;;;;14.97;100.00;101843.72;5279451;28;20029;-69
2023/08/23 04:28:37;;;;;;;7.38;3.85;;;;;;;15.00;100.00;101840.81;5284414;28;20320;-69
2023/08/23 04:31:08;;;;;;;9.05;3.97;;;;;;;14.96;100.00;101844.72;5291470;28;20492;-69
2023/08/23 04:33:42;;;;;;;6.20;3.78;;;;;;;14.93;100.00;101847.66;5278297;28;20024;-68
2023/08/23 04:36:13;;;;;;;7.13;3.90;;;;;;;14.84;100.00;101843.00;5281446;28;20024;-68
2023/08/23 04:38:44;;;;;;;10.18;4.53;;;;;;;14.87;100.00;101848.13;5295405;28;20472;-69
2023/08/23 04:41:16;;;;;;;12.30;5.10;;;;;;;14.89;100.00;101854.25;5285760;28;20039;-69
2023/08/23 04:43:47;;;;;;;7.00;3.80;;;;;;;14.77;100.00;101848.00;5279999;28;20081;-68
2023/08/23 04:46:19;;;;;;;7.47;3.22;;;;;;;14.86;100.00;101849.09;5294794;28;20115;-68
2023/08/23 04:48:50;;;;;;;5.10;3.42;;;;;;;14.85;100.00;101852.78;5285439;28;20036;-69
2023/08/23 04:51:23;;;;;;;6.18;3.15;;;;;;;14.88;100.00;101852.50;5279803;28;20355;-68
2023/08/23 04:53:54;;;;;;;4.82;3.00;;;;;;;14.71;100.00;101840.44;5284691;28;20032;-68
2023/08/23 04:56:25;;;;;;;5.45;2.88;;;;;;;14.79;100.00;101847.91;5287687;28;20103;-69
2023/08/23 04:58:57;;;;;;;7.72;3.20;;;;;;;14.76;100.00;101845.44;5286205;28;20027;-69
2023/08/23 05:01:28;;;;;;;8.77;3.65;;;;;;;14.89;100.00;101843.50;5289761;28;20482;-68
2023/08/23 05:04:00;;;;;;;7.18;3.80;;;;;;;14.87;100.00;101846.28;5283085;28;20060;-69
2023/08/23 05:06:31;;;;;;;7.70;4.10;;;;;;;14.93;100.00;101844.09;5291199;28;20485;-69
2023/08/23 05:09:04;;;;;;;10.90;4.03;;;;;;;14.88;100.00;101848.03;5285291;28;20024;-68
2023/08/23 05:11:36;;;;;;;11.82;4.70;;;;;;;15.15;100.00;101846.81;5291524;28;20036;-69
2023/08/23 05:14:07;;;;;;;15.23;4.88;;;;;;;15.04;100.00;101847.66;5281827;28;20049;-69
2023/08/23 05:16:39;;;;;;;14.20;5.00;;;;;;;14.92;100.00;101845.94;5295708;28;20025;-68
2023/08/23 05:19:10;;;;;;;16.10;5.57;;;;;;;14.87;100.00;101840.91;5286227;28;20073;-69
2023/08/23 05:21:41;;;;;;;23.83;7.22;;;;;;;14.90;100.00;101837.16;5290946;28;20028;-69
2023/08/23 05:24:13;;;;;;;17.45;5.55;;;;;;;14.90;100.00;101834.47;5285672;28;20028;-68
2023/08/23 05:26:44;;;;;;;21.52;6.40;;;;;;;14.94;100.00;101835.94;5288191;28;20051;-68
2023/08/23 05:29:16;;;;;;;17.92;7.65;;;;;;;15.25;100.00;101839.69;5286235;28;20036;-69
2023/08/23 05:31:47;;;;;;;13.40;6.00;;;;;;;15.22;100.00;101847.16;5293871;28;20067;-69
2023/08/23 05:34:18;;;;;;;11.20;6.22;;;;;;;15.17;100.00;101849.34;5282050;28;20020;-69
2023/08/23 05:36:50;;;;;;;12.45;5.50;;;;;;;15.27;100.00;101844.97;5295703;28;20037;-68
2023/08/23 05:39:21;;;;;;;12.43;5.72;;;;;;;15.22;100.00;101844.47;5287839;28;20954;-68
2023/08/23 05:41:53;;;;;;;18.77;6.53;;;;;;;15.33;100.00;101843.63;5285317;28;20016;-69
2023/08/23 05:44:24;;;;;;;12.23;6.63;;;;;;;15.20;100.00;101846.44;5276974;28;20472;-68
2023/08/23 05:46:55;;;;;;;11.85;6.20;;;;;;;15.18;100.00;101848.38;5276782;28;20032;-69
2023/08/23 05:49:27;;;;;;;12.30;6.15;;;;;;;15.12;100.00;101851.56;5274659;28;21703;-68
2023/08/23 05:51:58;;;;;;;10.15;5.97;;;;;;;15.17;100.00;101849.34;5273440;28;20485;-69
2023/08/23 05:54:31;;;;;;;11.48;5.82;;;;;;;15.38;100.00;101860.22;5273178;28;20448;-69
2023/08/23 05:57:03;;;;;;;9.23;5.65;;;;;;;15.22;100.00;101852.53;5275739;28;20028;-69
2023/08/23 05:59:35;;;;;;;11.88;6.30;;;;;;;15.47;100.00;101859.47;5277356;28;20057;-69
2023/08/23 06:02:06;;;;;;;9.43;5.97;;;;;;;15.52;100.00;101854.59;5274228;28;20756;-69
2023/08/23 06:04:38;;;;;;;12.23;6.45;;;;;;;15.44;100.00;101857.91;5269993;28;20478;-69
2023/08/23 06:07:09;;;;;;;14.18;7.25;;;;;;;15.43;100.00;101864.25;5273196;28;20063;-69
2023/08/23 06:09:41;;;;;;;13.13;7.40;;;;;;;15.55;100.00;101864.22;5272454;28;20027;-69
2023/08/23 06:12:12;;;;;;;10.45;6.85;;;;;;;15.47;100.00;101864.84;5280263;28;20565;-69
2023/08/23 06:14:44;;;;;;;13.98;7.30;;;;;;;15.57;100.00;101862.28;5277845;28;20028;-69
2023/08/23 06:17:16;;;;;;;12.50;8.75;;;;;;;15.60;100.00;101867.41;5275146;28;20020;-69
2023/08/23 06:19:47;;;;;;;12.68;9.52;;;;;;;15.64;100.00;101868.88;5274895;28;20316;-69
2023/08/23 06:22:19;;;;;;;16.77;9.93;;;;;;;15.66;100.00;101869.59;5277470;28;20031;-69
2023/08/23 06:24:50;;;;;;;11.00;9.88;;;;;;;15.83;100.00;101873.63;5275757;28;20037;-69
2023/08/23 06:27:22;;;;;;;15.88;10.43;;;;;;;15.72;100.00;101879.00;5278307;28;20368;-69
2023/08/23 06:29:53;;;;;;;13.68;9.95;;;;;;;15.85;100.00;101875.19;5279913;28;20386;-69
2023/08/23 06:32:25;;;;;;;13.27;8.85;;;;;;;15.82;100.00;101874.59;5276966;28;20146;-69
2023/08/23 06:34:56;;;;;;;13.00;8.85;;;;;;;15.90;100.00;101871.28;5277774;28;20074;-69
2023/08/23 06:37:28;;;;;;;12.13;7.97;;;;;;;15.92;100.00;101862.09;5279581;28;20066;-69
2023/08/23 06:40:00;;;;;;;13.18;8.77;;;;;;;15.99;100.00;101873.19;5281460;28;20035;-69
2023/08/23 06:42:31;;;;;;;13.55;9.93;;;;;;;16.14;100.00;101882.69;5291052;28;20036;-69
2023/08/23 06:45:03;;;;;;;13.77;9.52;;;;;;;16.04;100.00;101879.06;5278808;28;20024;-69
2023/08/23 06:47:36;;;;;;;12.80;9.65;;;;;;;16.16;100.00;101869.94;5282372;28;20089;-68
2023/08/23 06:50:07;;;;;;;11.85;9.63;;;;;;;16.11;100.00;101865.94;5295515;28;20618;-69
2023/08/23 06:52:39;;;;;;;15.55;10.77;;;;;;;16.29;100.00;101875.16;5290830;28;20086;-69
2023/08/23 06:55:10;;;;;;;15.32;9.50;;;;;;;16.35;100.00;101873.81;5279695;28;20052;-69
2023/08/23 06:57:42;;;;;;;14.48;9.55;;;;;;;16.40;100.00;101876.97;5279692;28;20054;-69
2023/08/23 07:00:13;;;;;;;13.60;10.27;;;;;;;16.45;100.00;101883.69;5281424;28;20110;-69
2023/08/23 07:02:45;;;;;;;12.40;9.60;;;;;;;16.48;100.00;101896.03;5279009;28;20044;-69
2023/08/23 07:05:16;;;;;;;12.98;9.20;;;;;;;16.55;100.00;101891.81;5275731;28;20132;-69
2023/08/23 07:07:47;;;;;;;13.68;8.68;;;;;;;16.64;100.00;101890.16;5284582;28;20679;-69
2023/08/23 07:10:19;;;;;;;12.18;8.77;;;;;;;16.63;100.00;101883.94;5278163;28;20024;-69
2023/08/23 07:12:51;;;;;;;13.38;8.90;;;;;;;16.77;100.00;101888.13;5273681;28;20403;-69
2023/08/23 07:15:23;;;;;;;10.38;8.50;;;;;;;17.00;100.00;101896.94;5288394;28;20032;-69
2023/08/23 07:17:55;;;;;;;12.60;9.05;;;;;;;16.96;100.00;101900.06;5277190;28;20051;-69
2023/08/23 07:20:26;;;;;;;12.55;9.18;;;;;;;16.95;100.00;101893.81;5283438;28;20055;-69
2023/08/23 07:22:57;;;;;;;10.32;8.10;;;;;;;17.01;100.00;101901.38;5280361;28;20027;-69
2023/08/23 07:25:29;;;;;;;11.57;8.35;;;;;;;17.21;100.00;101901.47;5283504;28;20111;-69
2023/08/23 07:28:00;;;;;;;13.77;9.40;;;;;;;17.21;100.00;101901.47;5285522;28;20032;-69
2023/08/23 07:30:32;;;;;;;14.70;8.43;;;;;;;17.39;100.00;101907.06;5280774;28;20036;-69
2023/08/23 07:33:03;;;;;;;11.70;7.63;;;;;;;17.39;100.00;101907.94;5287872;28;20036;-69
2023/08/23 07:35:35;;;;;;;10.82;6.88;;;;;;;17.47;100.00;101909.06;5288786;28;20042;-69
2023/08/23 07:38:07;;;;;;;9.57;6.85;;;;;;;17.74;100.00;101903.06;5290086;28;20107;-69
2023/08/23 07:40:38;;;;;;;11.95;7.80;;;;;;;17.77;100.00;101900.94;5320419;28;20027;-69
2023/08/23 07:43:10;;;;;;;9.68;7.13;;;;;;;17.71;100.00;101900.63;5306138;28;20037;-69
2023/08/23 07:45:41;;;;;;;11.32;6.40;;;;;;;17.90;100.00;101908.81;5286925;28;20024;-69
2023/08/23 07:48:12;;;;;;;8.27;6.47;;;;;;;17.89;100.00;101904.41;5297870;28;20039;-69
2023/08/23 07:50:48;;;;;;;9.68;7.18;;;;;;;17.94;100.00;101910.22;5291201;28;20394;-69
2023/08/23 07:53:19;;;;;;;12.35;6.97;;;;;;;18.02;100.00;101906.84;5295201;28;20107;-69
2023/08/23 07:55:51;;;;;;;10.40;6.10;;;;;;;18.15;100.00;101910.13;5285869;28;20073;-69
2023/08/23 07:58:22;;;;;;;9.00;6.95;;;;;;;18.23;100.00;101904.84;5294568;28;20102;-69
2023/08/23 08:00:53;;;;;;;10.93;7.07;;;;;;;18.30;100.00;101899.75;5283594;28;20496;-70
2023/08/23 08:03:28;;;;;;;9.88;7.35;;;;;;;18.41;100.00;101898.75;5300033;28;20036;-69
2023/08/23 08:05:59;;;;;;;9.57;7.80;;;;;;;18.55;100.00;101898.31;5307231;28;20607;-69
2023/08/23 08:08:31;;;;;;;9.43;7.45;;;;;;;18.53;100.00;101902.16;5283552;28;20113;-69
2023/08/23 08:11:02;;;;;;;13.13;7.57;;;;;;;18.72;100.00;101901.28;5292829;28;20115;-70
2023/08/23 08:13:33;;;;;;;9.90;7.10;;;;;;;18.76;100.00;101894.59;5288165;28;20025;-69
2023/08/23 08:16:07;;;;;;;10.40;6.43;;;;;;;18.89;100.00;101897.00;5286309;28;20081;-69
2023/08/23 08:18:39;;;;;;;9.10;6.00;;;;;;;18.96;100.00;101896.25;5300502;27;20033;-69
2023/08/23 08:21:10;;;;;;;8.10;5.38;;;;;;;19.00;100.00;101897.69;5285043;28;20278;-69
2023/08/23 08:23:42;;;;;;;10.32;5.60;;;;;;;19.02;100.00;101892.13;5286294;28;20027;-69
2023/08/23 08:26:14;;;;;;;8.95;5.10;;;;;;;19.18;100.00;101899.63;5292395;28;20481;-70
2023/08/23 08:28:45;;;;;;;7.05;4.40;;;;;;;19.21;100.00;101896.59;5300243;28;20087;-69
2023/08/23 08:31:17;;;;;;;8.68;4.72;;;;;;;19.50;100.00;101890.22;5291566;28;20048;-69
2023/08/23 08:33:49;;;;;;;7.85;4.40;;;;;;;19.55;100.00;101887.91;5288626;28;20031;-69
2023/08/23 08:36:21;;;;;;;5.50;3.20;;;;;;;19.62;100.00;101878.19;5290977;28;20028;-70
2023/08/23 08:38:52;;;;;;;6.00;3.70;;;;;;;19.68;100.00;101880.28;5289776;28;20430;-70
2023/08/23 08:41:24;;;;;;;7.15;4.00;;;;;;;19.67;100.00;101885.84;5289729;28;20072;-69
2023/08/23 08:43:56;;;;;;;5.28;3.13;;;;;;;19.70;100.00;101880.97;5283261;28;20036;-69
2023/08/23 08:46:28;;;;;;;6.03;3.60;;;;;;;19.85;100.00;101875.94;5279433;28;20099;-69
2023/08/23 08:48:59;;;;;;;9.73;3.72;;;;;;;19.88;100.00;101880.19;5285707;28;20032;-69
2023/08/23 08:51:36;;;;;;;5.47;3.03;;;;;;;20.06;100.00;101880.19;5286085;28;20031;-69
2023/08/23 08:54:08;;;;;;;5.60;3.00;;;;;;;20.09;100.00;101872.59;5298720;28;20016;-69
2023/08/23 08:56:40;;;;;;;5.18;3.15;;;;;;;20.09;100.00;101879.88;5285379;28;20104;-69
2023/08/23 08:59:16;;;;;;;6.78;3.00;;;;;;;20.11;100.00;101884.13;5284991;28;20027;-70
2023/08/23 09:01:49;;;;;;;8.40;3.03;;;;;;;20.31;100.00;101879.44;5288037;28;20072;-69
2023/08/23 09:04:20;;;;;;;8.88;3.03;;;;;;;20.27;100.00;101878.03;5284627;28;20058;-69
2023/08/23 09:06:53;;;;;;;8.00;3.33;;;;;;;20.32;100.00;101881.13;5293356;28;20032;-69
2023/08/23 09:09:24;;;;;;;10.85;3.50;;;;;;;20.32;100.00;101889.25;5288305;28;20069;-71
2023/08/23 09:11:55;;;;;;;9.48;3.67;;;;;;;20.46;100.00;101877.00;5290157;28;20027;-70
2023/08/23 09:14:28;;;;;;;12.20;3.88;;;;;;;20.57;100.00;101884.03;5292741;28;20020;-70
2023/08/23 09:16:59;;;;;;;10.95;3.70;;;;;;;20.70;100.00;101875.53;5296521;28;20066;-70
2023/08/23 09:19:34;;;;;;;15.98;4.68;;;;;;;20.67;100.00;101889.38;5292091;28;20028;-71
2023/08/23 09:22:05;;;;;;;18.23;4.68;;;;;;;20.65;100.00;101891.41;5290326;28;20437;-70
2023/08/23 09:24:37;;;;;;;15.60;4.55;;;;;;;20.83;100.00;101878.66;5309507;28;20094;-70
2023/08/23 09:27:08;;;;;;;13.25;4.20;;;;;;;20.98;100.00;101876.22;5289274;28;20030;-70
2023/08/23 09:29:40;;;;;;;12.88;3.75;;;;;;;20.92;100.00;101880.41;5289507;28;20031;-70
2023/08/23 09:32:11;;;;;;;17.15;5.07;;;;;;;21.24;100.00;101887.03;5289813;28;20044;-70
2023/08/23 09:34:43;;;;;;;10.55;4.50;;;;;;;21.03;100.00;101889.28;5293155;28;20027;-71
2023/08/23 09:37:14;;;;;;;14.48;5.38;;;;;;;21.17;100.00;101888.69;5291157;28;20036;-71
2023/08/23 09:39:45;;;;;;;9.60;6.25;;;;;;;21.11;100.00;101883.91;5289305;28;20029;-70
2023/08/23 09:42:17;;;;;;;10.05;5.63;;;;;;;21.40;100.00;101888.09;5291863;27;20394;-70
2023/08/23 09:44:50;;;;;;;14.55;5.60;;;;;;;21.32;100.00;101873.50;5278943;28;20123;-70
2023/08/23 09:47:29;;;;;;;11.65;5.60;;;;;;;21.38;100.00;101877.41;5297955;28;20477;-71
2023/08/23 09:50:02;;;;;;;8.05;5.15;;;;;;;21.36;100.00;101874.00;5298475;28;20028;-71
2023/08/23 09:52:36;;;;;;;9.97;5.80;;;;;;;21.50;100.00;101867.16;5289688;28;20470;-71
2023/08/23 09:55:11;;;;;;;10.80;4.93;;;;;;;21.60;100.00;101872.44;5293345;28;20269;-71
2023/08/23 09:57:43;;;;;;;8.07;5.40;;;;;;;21.72;100.00;101871.94;5290030;28;20031;-70
2023/08/23 10:00:16;;;;;;;7.47;4.97;;;;;;;21.77;100.00;101876.06;5278078;28;20452;-70
2023/08/23 10:02:48;;;;;;;9.68;5.00;;;;;;;21.89;100.00;101877.44;5281446;28;20273;-71
2023/08/23 10:05:20;;;;;;;9.45;5.72;;;;;;;21.87;100.00;101876.75;5301616;28;20151;-71
2023/08/23 10:07:54;;;;;;;8.82;5.05;;;;;;;21.87;100.00;101880.31;5288845;28;20111;-71
2023/08/23 10:10:28;;;;;;;10.32;5.30;;;;;;;21.89;100.00;101883.72;5279246;28;20082;-71
2023/08/23 10:13:04;;;;;;;;;;;;;;;22.01;100.00;101881.53;5284475;28;20444;-71
2023/08/23 10:15:39;;;;;;;8.45;5.28;;;;;;;21.87;100.00;101874.03;5280907;28;19916;-71
2023/08/23 10:18:13;;;;;;;6.97;4.78;;;;;;;21.92;100.00;101875.25;5278635;28;20528;-71
2023/08/23 10:20:44;;;;;;;10.43;6.07;;;;;;;21.98;100.00;101878.31;5284120;28;20024;-70
2023/08/23 10:23:16;;;;;;;6.70;4.50;;;;;;;22.09;100.00;101883.41;5286876;28;20494;-71
2023/08/23 10:25:49;;;;;;;9.80;5.25;;;;;;;22.02;100.00;101880.53;5282933;28;20060;-71
2023/08/23 10:28:20;;;;;;;8.63;5.43;;;;;;;22.13;100.00;101873.91;5289845;28;20431;-71
2023/08/23 10:30:52;;;;;;;10.77;5.90;;;;;;;22.03;100.00;101874.06;5284688;28;20028;-70
2023/08/23 10:33:23;;;;;;;8.00;4.78;;;;;;;21.99;100.00;101869.97;5286040;28;20486;-71
2023/08/23 10:35:56;;;;;;;7.75;5.30;;;;;;;21.98;100.00;101871.00;5295833;28;20092;-71
2023/08/23 10:38:27;;;;;;;6.20;3.97;;;;;;;22.16;100.00;101870.84;5288605;28;20035;-70
2023/08/23 10:41:00;;;;;;;6.47;3.95;;;;;;;22.27;100.00;101867.81;5296083;28;20024;-71
2023/08/23 10:43:32;;;;;;;8.57;4.90;;;;;;;22.47;100.00;101867.47;5291138;28;20032;-71
2023/08/23 10:46:06;;;;;;;9.20;5.40;;;;;;;22.40;100.00;101850.13;5279024;28;20028;-71
2023/08/23 10:48:39;;;;;;;7.82;5.10;;;;;;;22.39;100.00;101860.16;5295792;28;20153;-70
2023/08/23 10:51:11;;;;;;;8.93;5.40;;;;;;;22.48;100.00;101858.31;5289222;28;20032;-71
2023/08/23 10:53:42;;;;;;;5.78;3.72;;;;;;;22.43;100.00;101857.97;5289570;28;20091;-71
2023/08/23 10:56:14;;;;;;;6.45;4.03;;;;;;;22.48;100.00;101850.16;5298575;28;20032;-71
2023/08/23 10:58:45;;;;;;;7.30;3.83;;;;;;;22.61;100.00;101858.63;5299641;28;20359;-71
2023/08/23 11:01:17;;;;;;;8.30;4.20;;;;;;;22.81;100.00;101847.38;5296317;28;20048;-70
2023/08/23 11:03:49;;;;;;;6.97;4.00;;;;;;;22.78;100.00;101848.59;5283486;28;20433;-70
2023/08/23 11:06:21;;;;;;;8.75;3.85;;;;;;;22.89;100.00;101831.84;5298684;28;20490;-71
2023/08/23 11:08:52;;;;;;;8.38;4.72;;;;;;;23.00;100.00;101829.81;5296880;28;20024;-71
2023/08/23 11:11:30;;;;;;;7.20;3.58;;;;;;;23.06;100.00;101834.56;5290592;28;20048;-71
2023/08/23 11:14:03;;;;;;;9.30;4.78;;;;;;;23.02;100.00;101822.31;5283350;28;20031;-71
2023/08/23 11:16:35;;;;;;;5.80;3.80;;;;;;;23.09;100.00;101824.19;5283164;28;20090;-71
2023/08/23 11:19:07;;;;;;;7.75;4.10;;;;;;;23.12;100.00;101825.69;5286126;28;20032;-70
2023/08/23 11:21:39;;;;;;;6.35;3.00;;;;;;;23.11;100.00;101824.00;5281431;28;20032;-71
2023/08/23 11:24:10;;;;;;;7.50;3.45;;;;;;;23.25;100.00;101822.41;5300010;28;20089;-71
2023/08/23 11:26:41;;;;;;;4.45;2.78;;;;;;;23.21;100.00;101819.19;5293736;28;20024;-71
2023/08/23 11:29:13;;;;;;;4.63;3.15;;;;;;;23.20;100.00;101820.19;5285362;28;20650;-71
2023/08/23 11:31:52;;;;;;;6.20;3.35;;;;;;;23.27;100.00;101821.19;5283978;28;20108;-71
2023/08/23 11:34:25;;;;;;;6.65;3.33;;;;;;;23.31;100.00;101816.25;5295591;28;20073;-71
2023/08/23 11:36:57;;;;;;;6.00;2.92;;;;;;;23.34;100.00;101815.91;5299623;28;20036;-71